createdAt,value
2019-05-22T00:01:40.846Z,97273.34
2019-05-22T00:04:25.507Z,97279.30
2019-05-22T00:07:03.867Z,97275.50
2019-05-22T00:09:40.279Z,97289.27
2019-05-22T00:12:19.361Z,97286.77
2019-05-22T00:14:54.730Z,97286.77
2019-05-22T00:17:32.495Z,97291.47
2019-05-22T00:20:07.276Z,97295.14
2019-05-22T00:22:43.675Z,97289.44
2019-05-22T00:25:21.287Z,97290.37
2019-05-22T00:27:56.294Z,97293.03
2019-05-22T00:30:36.442Z,97295.48
2019-05-22T00:33:12.283Z,97290.97
2019-05-22T00:35:47.616Z,97290.50
2019-05-22T00:38:23.858Z,97288.97
2019-05-22T00:40:58.331Z,97290.03
2019-05-22T00:43:31.281Z,97276.76
2019-05-22T00:46:08.272Z,97276.76
2019-05-22T00:48:44.942Z,97281.95
2019-05-22T00:51:36.669Z,97278.05
2019-05-22T00:54:38.717Z,97278.41
2019-05-22T00:57:45.865Z,97284.91
2019-05-22T01:00:34.807Z,97280.84
2019-05-22T01:03:10.283Z,97278.95
2019-05-22T01:05:45.267Z,97284.44
2019-05-22T01:08:21.342Z,97286.13
2019-05-22T01:10:57.703Z,97274.80
2019-05-22T01:13:33.294Z,97274.80
2019-05-22T01:16:10.683Z,97280.76
2019-05-22T01:18:47.275Z,97280.03
2019-05-22T01:21:25.281Z,97281.05
2019-05-22T01:24:00.627Z,97285.87
2019-05-22T01:26:36.265Z,97282.45
2019-05-22T01:29:11.939Z,97278.42
2019-05-22T01:31:51.533Z,97284.67
2019-05-22T01:34:30.276Z,97285.94
2019-05-22T01:37:10.779Z,97282.61
2019-05-22T01:40:10.247Z,97288.06
2019-05-22T01:42:46.566Z,97283.15
2019-05-22T01:45:25.289Z,97292.66
2019-05-22T01:48:09.278Z,97290.38
2019-05-22T01:50:49.265Z,97296.23
2019-05-22T01:53:27.600Z,97291.67
2019-05-22T01:56:08.763Z,97296.36
2019-05-22T01:58:43.096Z,97293.83
2019-05-22T02:01:24.274Z,97294.87
2019-05-22T02:04:02.328Z,97294.11
2019-05-22T02:06:37.550Z,97299.97
2019-05-22T02:09:41.277Z,97302.13
2019-05-22T02:12:36.276Z,97297.63
2019-05-22T02:15:11.564Z,97297.63
2019-05-22T02:17:46.280Z,97298.55
2019-05-22T02:20:21.270Z,97303.87
2019-05-22T02:22:55.693Z,97297.16
2019-05-22T02:25:30.255Z,97308.18
2019-05-22T02:28:09.500Z,97308.31
2019-05-22T02:30:45.717Z,97304.13
2019-05-22T02:33:19.271Z,97306.89
2019-05-22T02:35:55.090Z,97314.80
2019-05-22T02:38:29.675Z,97308.84
2019-05-22T02:41:48.941Z,97312.36
2019-05-22T02:44:25.529Z,97317.48
2019-05-22T02:47:18.280Z,97324.81
2019-05-22T02:49:40.280Z,97330.88
2019-05-22T02:52:15.520Z,97331.22
2019-05-22T02:54:51.253Z,97337.67
2019-05-22T02:57:28.555Z,97336.65
2019-05-22T03:00:03.371Z,97328.79
2019-05-22T03:02:51.364Z,97331.22
2019-05-22T03:05:25.938Z,97332.62
2019-05-22T03:07:59.101Z,97336.30
2019-05-22T03:10:33.307Z,97331.73
2019-05-22T03:13:11.301Z,97347.61
2019-05-22T03:15:45.787Z,97347.61
2019-05-22T03:18:21.818Z,97344.81
2019-05-22T03:20:56.775Z,97356.22
2019-05-22T03:23:40.498Z,97354.97
2019-05-22T03:26:15.283Z,97362.34
2019-05-22T03:28:49.983Z,97351.72
2019-05-22T03:31:24.720Z,97351.98
2019-05-22T03:33:57.655Z,97355.28
2019-05-22T03:36:31.942Z,97353.53
2019-05-22T03:39:08.276Z,97348.11
2019-05-22T03:41:43.273Z,97356.70
2019-05-22T03:44:20.097Z,97350.38
2019-05-22T03:46:59.292Z,97368.00
2019-05-22T03:49:32.559Z,97368.00
2019-05-22T03:52:09.342Z,97372.58
2019-05-22T03:54:44.118Z,97374.59
2019-05-22T03:57:18.686Z,97386.09
2019-05-22T03:59:52.971Z,97386.09
2019-05-22T04:02:28.757Z,97389.41
2019-05-22T04:05:03.488Z,97393.95
2019-05-22T04:07:39.397Z,97390.90
2019-05-22T04:10:14.292Z,97390.14
2019-05-22T04:12:48.787Z,97389.78
2019-05-22T04:15:22.820Z,97386.37
2019-05-22T04:18:02.322Z,97395.87
2019-05-22T04:20:36.858Z,97398.79
2019-05-22T04:23:11.275Z,97406.12
2019-05-22T04:25:46.271Z,97403.20
2019-05-22T04:28:20.940Z,97409.80
2019-05-22T04:30:59.804Z,97411.56
2019-05-22T04:33:32.945Z,97413.48
2019-05-22T04:36:10.358Z,97413.48
2019-05-22T04:38:44.905Z,97413.48
2019-05-22T04:41:18.695Z,97404.87
2019-05-22T04:43:53.929Z,97412.96
2019-05-22T04:46:28.124Z,97418.16
2019-05-22T04:49:03.462Z,97422.84
2019-05-22T04:51:39.400Z,97422.84
2019-05-22T04:54:13.990Z,97417.53
2019-05-22T04:56:49.280Z,97426.51
2019-05-22T04:59:24.278Z,97425.48
2019-05-22T05:01:58.745Z,97428.53
2019-05-22T05:04:33.283Z,97419.42
2019-05-22T05:07:08.780Z,97432.45
2019-05-22T05:09:45.277Z,97430.30
2019-05-22T05:12:20.272Z,97432.22
2019-05-22T05:14:54.728Z,97437.53
2019-05-22T05:17:29.101Z,97439.81
2019-05-22T05:20:03.658Z,97434.75
2019-05-22T05:22:46.783Z,97442.10
2019-05-22T05:25:20.687Z,97438.29
2019-05-22T05:27:56.291Z,97445.25
2019-05-22T05:30:32.271Z,97449.16
2019-05-22T05:33:06.835Z,97454.09
2019-05-22T05:35:40.350Z,97454.48
2019-05-22T05:38:16.274Z,97450.17
2019-05-22T05:40:51.279Z,97450.17
2019-05-22T05:43:26.479Z,97457.63
2019-05-22T05:46:02.701Z,97461.04
2019-05-22T05:48:38.949Z,97461.53
2019-05-22T05:51:42.538Z,97463.95
2019-05-22T05:54:19.096Z,97464.31
2019-05-22T05:56:54.278Z,97470.13
2019-05-22T05:59:31.291Z,97477.59
2019-05-22T06:02:07.284Z,97485.97
2019-05-22T06:04:42.651Z,97487.85
2019-05-22T06:07:28.284Z,97487.85
2019-05-22T06:10:50.951Z,97495.94
2019-05-22T06:13:25.635Z,97503.15
2019-05-22T06:17:31.669Z,97505.56
2019-05-22T06:20:12.279Z,97508.48
2019-05-22T06:23:29.991Z,97516.42
2019-05-22T06:26:05.298Z,97520.62
2019-05-22T06:28:44.334Z,97520.62
2019-05-22T06:31:36.939Z,97518.45
2019-05-22T06:34:11.738Z,97520.45
2019-05-22T06:36:45.076Z,97525.52
2019-05-22T06:39:19.757Z,97522.69
2019-05-22T06:41:54.338Z,97521.27
2019-05-22T06:44:37.274Z,97516.67
2019-05-22T06:47:18.687Z,97516.05
2019-05-22T06:49:58.303Z,97513.86
2019-05-22T06:52:33.471Z,97515.39
2019-05-22T06:55:09.250Z,97517.03
2019-05-22T06:57:43.761Z,97505.25
2019-05-22T07:00:22.135Z,97521.81
2019-05-22T07:02:57.313Z,97509.67
2019-05-22T07:05:32.282Z,97509.67
2019-05-22T07:08:07.572Z,97519.65
2019-05-22T07:10:43.532Z,97521.07
2019-05-22T07:13:18.329Z,97530.72
2019-05-22T07:15:54.279Z,97528.37
2019-05-22T07:18:32.061Z,97528.21
2019-05-22T07:21:08.307Z,97534.02
2019-05-22T07:23:43.272Z,97541.63
2019-05-22T07:26:18.332Z,97539.50
2019-05-22T07:28:53.315Z,97536.85
2019-05-22T07:31:29.083Z,97533.82
2019-05-22T07:34:04.243Z,97542.48
2019-05-22T07:36:38.934Z,97542.48
2019-05-22T07:39:13.663Z,97543.62
2019-05-22T07:41:48.363Z,97539.53
2019-05-22T07:44:23.278Z,97545.26
2019-05-22T07:46:57.926Z,97547.69
2019-05-22T07:49:32.678Z,97545.51
2019-05-22T07:52:11.944Z,97548.94
2019-05-22T07:54:47.128Z,97554.83
2019-05-22T07:57:25.623Z,97548.75
2019-05-22T08:00:00.280Z,97557.20
2019-05-22T08:02:40.287Z,97557.20
2019-05-22T08:05:16.341Z,97558.38
2019-05-22T08:07:52.344Z,97558.08
2019-05-22T08:10:29.795Z,97561.48
2019-05-22T08:13:04.283Z,97561.37
2019-05-22T08:15:39.269Z,97569.59
2019-05-22T08:18:14.277Z,97569.59
2019-05-22T08:20:48.748Z,97570.84
2019-05-22T08:23:23.639Z,97573.48
2019-05-22T08:26:00.309Z,97569.72
2019-05-22T08:28:35.274Z,97578.86
2019-05-22T08:31:13.594Z,97579.64
2019-05-22T08:33:48.674Z,97589.61
2019-05-22T08:36:23.666Z,97589.61
2019-05-22T08:38:58.296Z,97585.55
2019-05-22T08:41:39.932Z,97586.42
2019-05-22T08:44:17.953Z,97592.21
2019-05-22T08:46:54.108Z,97589.84
2019-05-22T08:49:29.670Z,97589.84
2019-05-22T08:52:04.939Z,97584.76
2019-05-22T08:54:39.415Z,97590.58
2019-05-22T08:57:16.315Z,97591.34
2019-05-22T08:59:51.944Z,97592.37
2019-05-22T09:02:26.291Z,97596.66
2019-05-22T09:05:00.906Z,97607.25
2019-05-22T09:07:36.290Z,97607.25
2019-05-22T09:10:11.584Z,97619.31
2019-05-22T09:12:46.285Z,97614.73
2019-05-22T09:15:21.286Z,97618.53
2019-05-22T09:17:56.271Z,97623.85
2019-05-22T09:20:46.417Z,97626.30
2019-05-22T09:23:08.687Z,97628.47
2019-05-22T09:25:42.270Z,97626.98
2019-05-22T09:28:16.631Z,97625.26
2019-05-22T09:30:51.302Z,97625.26
2019-05-22T09:33:26.280Z,97631.47
2019-05-22T09:36:00.686Z,97627.81
2019-05-22T09:38:35.281Z,97627.81
2019-05-22T09:41:09.936Z,97636.70
2019-05-22T09:43:44.279Z,97641.49
2019-05-22T09:46:19.567Z,97641.49
2019-05-22T09:48:54.278Z,97639.55
2019-05-22T09:51:29.310Z,97649.84
2019-05-22T09:54:04.278Z,97649.09
2019-05-22T09:56:39.321Z,97650.55
2019-05-22T09:59:14.279Z,97653.33
2019-05-22T10:01:48.769Z,97662.73
2019-05-22T10:04:23.267Z,97660.23
2019-05-22T10:06:57.785Z,97651.09
2019-05-22T10:09:31.574Z,97659.33
2019-05-22T10:12:08.299Z,97656.90
2019-05-22T10:14:43.340Z,97665.26
2019-05-22T10:17:40.123Z,97660.91
2019-05-22T10:20:15.443Z,97669.53
2019-05-22T10:22:50.109Z,97670.14
2019-05-22T10:25:25.252Z,97664.20
2019-05-22T10:31:36.847Z,97677.83
2019-05-22T10:34:11.641Z,97677.83
2019-05-22T10:36:46.614Z,97676.95
2019-05-22T10:39:24.641Z,97684.73
2019-05-22T10:41:57.909Z,97684.73
2019-05-22T10:44:32.666Z,97687.78
2019-05-22T10:47:09.413Z,97692.80
2019-05-22T10:49:44.269Z,97689.14
2019-05-22T10:52:19.329Z,97689.14
2019-05-22T10:54:56.107Z,97693.84
2019-05-22T10:57:31.712Z,97693.84
2019-05-22T11:00:07.931Z,97692.95
2019-05-22T11:02:42.927Z,97701.66
2019-05-22T11:05:18.277Z,97702.69
2019-05-22T11:07:53.333Z,97708.38
2019-05-22T11:10:28.462Z,97712.73
2019-05-22T11:13:03.679Z,97708.16
2019-05-22T11:15:39.641Z,97713.00
2019-05-22T11:18:14.274Z,97704.02
2019-05-22T11:20:48.721Z,97711.17
2019-05-22T11:23:23.358Z,97701.55
2019-05-22T11:25:58.276Z,97706.51
2019-05-22T11:28:33.571Z,97705.75
2019-05-22T11:31:08.877Z,97706.02
2019-05-22T11:33:43.714Z,97711.10
2019-05-22T11:36:19.285Z,97711.10
2019-05-22T11:38:53.761Z,97720.61
2019-05-22T11:41:27.999Z,97712.11
2019-05-22T11:44:03.286Z,97716.30
2019-05-22T11:46:38.319Z,97715.03
2019-05-22T11:49:13.318Z,97716.31
2019-05-22T11:51:48.283Z,97716.42
2019-05-22T11:54:23.766Z,97725.32
2019-05-22T11:56:57.952Z,97725.32
2019-05-22T11:59:32.891Z,97714.66
2019-05-22T12:02:08.342Z,97721.87
2019-05-22T12:04:48.007Z,97727.45
2019-05-22T12:07:20.357Z,97727.45
2019-05-22T12:09:55.276Z,97728.22
2019-05-22T12:12:30.060Z,97734.96
2019-05-22T12:15:06.363Z,97729.87
2019-05-22T12:17:42.133Z,97735.45
2019-05-22T12:20:17.690Z,97738.75
2019-05-22T12:22:52.268Z,97741.67
2019-05-22T12:25:28.275Z,97741.67
2019-05-22T12:28:03.910Z,97744.09
2019-05-22T12:30:39.187Z,97742.56
2019-05-22T12:33:14.599Z,97730.50
2019-05-22T12:35:51.115Z,97748.39
2019-05-22T12:38:27.585Z,97747.77
2019-05-22T12:41:01.950Z,97747.77
2019-05-22T12:43:37.183Z,97750.05
2019-05-22T12:46:13.597Z,97750.05
2019-05-22T12:48:48.735Z,97749.42
2019-05-22T12:51:23.657Z,97751.55
2019-05-22T12:53:58.661Z,97751.12
2019-05-22T12:56:33.947Z,97748.71
2019-05-22T12:59:09.937Z,97746.92
2019-05-22T13:01:46.268Z,97748.11
2019-05-22T13:04:20.763Z,97742.39
2019-05-22T13:06:57.246Z,97742.39
2019-05-22T13:09:32.933Z,97746.48
2019-05-22T13:12:09.290Z,97746.48
2019-05-22T13:14:45.413Z,97740.84
2019-05-22T13:17:22.074Z,97747.11
2019-05-22T13:19:56.782Z,97749.38
2019-05-22T13:22:30.391Z,97749.38
2019-05-22T13:25:06.854Z,97744.89
2019-05-22T13:27:41.929Z,97748.36
2019-05-22T13:30:18.635Z,97748.36
2019-05-22T13:35:38.691Z,97748.66
2019-05-22T13:38:14.680Z,97750.93
2019-05-22T13:40:49.953Z,97752.31
2019-05-22T13:43:25.740Z,97749.05
2019-05-22T13:45:59.845Z,97749.05
2019-05-22T13:48:34.319Z,97754.63
2019-05-22T13:51:11.273Z,97754.63
2019-05-22T13:53:47.606Z,97771.39
2019-05-22T13:56:25.562Z,97774.41
2019-05-22T13:59:00.272Z,97770.35
2019-05-22T14:01:35.305Z,97775.44
2019-05-22T14:04:10.120Z,97780.75
2019-05-22T14:06:46.291Z,97774.53
2019-05-22T14:09:42.338Z,97774.53
2019-05-22T14:12:17.158Z,97785.70
2019-05-22T14:14:51.699Z,97793.17
2019-05-22T14:17:26.352Z,97793.17
2019-05-22T14:21:51.297Z,97801.95
2019-05-22T14:24:20.740Z,97801.20
2019-05-22T14:26:55.321Z,97796.38
2019-05-22T14:29:30.270Z,97797.52
2019-05-22T14:32:05.695Z,97799.05
2019-05-22T14:34:40.402Z,97799.30
2019-05-22T14:37:15.654Z,97793.09
2019-05-22T14:39:50.788Z,97793.09
2019-05-22T14:42:25.186Z,97790.05
2019-05-22T14:45:00.287Z,97790.05
2019-05-22T14:47:37.578Z,97780.64
2019-05-22T14:50:13.650Z,97794.33
2019-05-22T14:52:48.783Z,97798.42
2019-05-22T14:55:22.280Z,97801.88
2019-05-22T14:57:58.357Z,97802.11
2019-05-22T15:00:34.090Z,97802.11
2019-05-22T15:03:08.917Z,97810.00
2019-05-22T15:05:43.827Z,97809.84
2019-05-22T15:08:17.103Z,97816.33
2019-05-22T15:10:51.717Z,97815.94
2019-05-22T15:13:25.693Z,97805.25
2019-05-22T15:16:00.342Z,97817.03
2019-05-22T15:18:35.265Z,97818.05
2019-05-22T15:21:11.737Z,97828.16
2019-05-22T15:23:46.277Z,97831.73
2019-05-22T15:26:20.941Z,97829.20
2019-05-22T15:28:55.648Z,97829.20
2019-05-22T15:31:30.538Z,97825.64
2019-05-22T15:34:06.330Z,97825.38
2019-05-22T15:36:41.278Z,97830.77
2019-05-22T15:39:20.769Z,97830.77
2019-05-22T15:41:54.553Z,97832.64
2019-05-22T15:44:30.583Z,97834.17
2019-05-22T15:47:06.288Z,97828.92
2019-05-22T15:49:45.677Z,97828.92
2019-05-22T15:52:20.497Z,97830.57
2019-05-22T15:54:55.273Z,97834.70
2019-05-22T15:57:29.728Z,97829.70
2019-05-22T16:00:08.346Z,97829.70
2019-05-22T16:02:46.552Z,97831.59
2019-05-22T16:05:23.398Z,97837.03
2019-05-22T16:07:58.470Z,97839.44
2019-05-22T16:10:32.946Z,97846.88
2019-05-22T16:13:08.531Z,97847.64
2019-05-22T16:15:44.274Z,97850.25
2019-05-22T16:18:22.496Z,97856.98
2019-05-22T16:20:59.318Z,97850.02
2019-05-22T16:23:36.165Z,97858.41
2019-05-22T16:26:12.032Z,97858.41
2019-05-22T16:28:49.944Z,97860.84
2019-05-22T16:31:25.285Z,97865.20
2019-05-22T16:34:00.279Z,97865.97
2019-05-22T16:36:35.625Z,97862.28
2019-05-22T16:39:12.947Z,97868.23
2019-05-22T16:41:47.790Z,97862.38
2019-05-22T16:44:22.102Z,97864.22
2019-05-22T16:47:02.805Z,97874.34
2019-05-22T16:49:37.282Z,97874.34
2019-05-22T16:52:13.550Z,97877.38
2019-05-22T16:54:49.325Z,97887.90
2019-05-22T16:57:24.300Z,97884.59
2019-05-22T17:00:00.158Z,97884.45
2019-05-22T17:02:38.273Z,97885.94
2019-05-22T17:05:14.313Z,97887.77
2019-05-22T17:07:48.784Z,97883.55
2019-05-22T17:10:22.669Z,97891.51
2019-05-22T17:12:57.946Z,97891.51
2019-05-22T17:15:33.121Z,97896.41
2019-05-22T17:18:10.311Z,97895.02
2019-05-22T17:20:45.286Z,97896.50
2019-05-22T17:23:19.767Z,97898.91
2019-05-22T17:25:53.906Z,97898.00
2019-05-22T17:28:28.967Z,97903.71
2019-05-22T17:31:04.455Z,97901.02
2019-05-22T17:33:39.669Z,97901.02
2019-05-22T17:36:12.864Z,97901.16
2019-05-22T17:38:46.380Z,97902.27
2019-05-22T17:41:21.300Z,97903.06
2019-05-22T17:43:56.944Z,97907.55
2019-05-22T17:46:32.250Z,97904.23
2019-05-22T17:49:07.425Z,97906.45
2019-05-22T17:51:42.281Z,97905.09
2019-05-22T17:54:18.728Z,97905.09
2019-05-22T17:56:53.720Z,97906.48
2019-05-22T17:59:28.428Z,97910.11
2019-05-22T18:02:04.878Z,97910.11
2019-05-22T18:04:39.696Z,97917.32
2019-05-22T18:07:14.528Z,97926.44
2019-05-22T18:09:49.106Z,97926.44
2019-05-22T18:12:25.175Z,97928.05
2019-05-22T18:15:00.381Z,97928.05
2019-05-22T18:17:36.301Z,97932.56
2019-05-22T18:20:12.783Z,97939.89
2019-05-22T18:22:45.859Z,97943.36
2019-05-22T18:25:20.681Z,97943.36
2019-05-22T18:27:55.966Z,97946.98
2019-05-22T18:30:31.288Z,97956.36
2019-05-22T18:33:06.561Z,97958.66
2019-05-22T18:35:41.398Z,97958.66
2019-05-22T18:38:16.329Z,97963.74
2019-05-22T18:40:50.793Z,97962.14
2019-05-22T18:43:23.872Z,97962.14
2019-05-22T18:45:58.290Z,97965.70
2019-05-22T18:48:33.333Z,97967.70
2019-05-22T18:51:09.302Z,97973.89
2019-05-22T18:53:44.299Z,97976.97
2019-05-22T18:56:19.107Z,97972.58
2019-05-22T18:58:54.283Z,97981.19
2019-05-22T19:01:28.964Z,97981.19
2019-05-22T19:04:03.953Z,97973.12
2019-05-22T19:06:38.504Z,97973.12
2019-05-22T19:09:16.286Z,97987.03
2019-05-22T19:11:51.015Z,97993.51
2019-05-22T19:14:26.000Z,97994.61
2019-05-22T19:17:00.762Z,97993.44
2019-05-22T19:19:36.325Z,97993.44
2019-05-22T19:22:11.302Z,97995.60
2019-05-22T19:24:46.317Z,98002.26
2019-05-22T19:27:21.105Z,98002.77
2019-05-22T19:29:55.747Z,98011.12
2019-05-22T19:32:29.960Z,98006.73
2019-05-22T19:35:05.790Z,98002.67
2019-05-22T19:37:41.164Z,98007.58
2019-05-22T19:40:16.320Z,98007.58
2019-05-22T19:42:50.903Z,98016.33
2019-05-22T19:45:25.699Z,98017.50
2019-05-22T19:47:59.085Z,98014.59
2019-05-22T19:50:33.338Z,98017.86
2019-05-22T19:53:18.769Z,98014.23
2019-05-22T19:55:45.868Z,98019.52
2019-05-22T19:58:21.945Z,98017.72
2019-05-22T20:00:55.334Z,98026.28
2019-05-22T20:03:30.512Z,98021.13
2019-05-22T20:06:05.779Z,98014.53
2019-05-22T20:08:40.670Z,98014.53
2019-05-22T20:11:14.956Z,98017.31
2019-05-22T20:13:49.635Z,98017.16
2019-05-22T20:16:23.045Z,98011.45
2019-05-22T20:18:57.331Z,98010.25
2019-05-22T20:21:32.404Z,98015.48
2019-05-22T20:24:07.570Z,98008.53
2019-05-22T20:26:42.399Z,98011.17
2019-05-22T20:29:18.307Z,98007.14
2019-05-22T20:31:53.280Z,98009.30
2019-05-22T20:34:27.930Z,98015.48
2019-05-22T20:37:02.700Z,98019.03
2019-05-22T20:39:37.534Z,98018.70
2019-05-22T20:42:12.292Z,98028.84
2019-05-22T20:44:47.318Z,98027.45
2019-05-22T20:47:25.642Z,98028.16
2019-05-22T20:50:00.317Z,98028.30
2019-05-22T20:52:36.668Z,98032.52
2019-05-22T20:55:12.715Z,98032.40
2019-05-22T20:57:46.282Z,98033.94
2019-05-22T21:00:22.289Z,98033.50
2019-05-22T21:03:04.345Z,98033.50
2019-05-22T21:05:40.449Z,98040.89
2019-05-22T21:08:18.373Z,98037.89
2019-05-22T21:10:54.570Z,98041.15
2019-05-22T21:13:28.954Z,98040.67
2019-05-22T21:16:03.950Z,98039.83
2019-05-22T21:18:42.470Z,98039.83
2019-05-22T21:21:18.680Z,98048.88
2019-05-22T21:24:08.958Z,98048.88
2019-05-22T21:26:29.778Z,98049.16
2019-05-22T21:29:04.792Z,98046.16
2019-05-22T21:31:38.283Z,98046.16
2019-05-22T21:34:13.283Z,98039.35
2019-05-22T21:36:48.276Z,98039.35
2019-05-22T21:39:23.887Z,98040.45
2019-05-22T21:41:58.290Z,98045.73
2019-05-22T21:44:32.964Z,98043.86
2019-05-22T21:47:07.701Z,98044.41
2019-05-22T21:49:43.287Z,98044.41
2019-05-22T21:52:17.857Z,98047.08
2019-05-22T21:54:50.867Z,98045.80
2019-05-22T21:57:25.559Z,98036.06
2019-05-22T22:00:00.317Z,98045.69
2019-05-22T22:02:39.581Z,98044.41
2019-05-22T22:05:14.582Z,98045.17
2019-05-22T22:07:49.539Z,98043.78
2019-05-22T22:10:24.731Z,98051.03
2019-05-22T22:12:59.284Z,98053.81
2019-05-22T22:15:41.574Z,98056.31
2019-05-22T22:18:18.319Z,98050.81
2019-05-22T22:20:53.286Z,98057.44
2019-05-22T22:23:28.312Z,98055.75
2019-05-22T22:26:03.604Z,98053.27
2019-05-22T22:28:40.592Z,98055.68
2019-05-22T22:31:18.490Z,98051.03
2019-05-22T22:34:01.537Z,98054.36
2019-05-22T22:36:36.670Z,98050.34
2019-05-22T22:39:15.273Z,98059.16
2019-05-22T22:41:53.917Z,98051.44
2019-05-22T22:44:28.773Z,98048.95
2019-05-22T22:47:11.717Z,98054.98
2019-05-22T22:49:47.281Z,98057.41
2019-05-22T22:52:22.787Z,98054.00
2019-05-22T22:54:56.588Z,98053.11
2019-05-22T22:57:31.380Z,98058.39
2019-05-22T23:00:08.513Z,98056.30
2019-05-22T23:02:46.432Z,98056.44
2019-05-22T23:05:21.279Z,98056.33
2019-05-22T23:07:57.284Z,98059.03
2019-05-22T23:10:33.089Z,98059.88
2019-05-22T23:13:08.701Z,98063.49
2019-05-22T23:15:44.990Z,98063.49
2019-05-22T23:19:07.276Z,98059.11
2019-05-22T23:21:40.348Z,98066.83
2019-05-22T23:24:13.316Z,98064.95
2019-05-22T23:26:47.877Z,98077.08
2019-05-22T23:29:22.712Z,98079.63
2019-05-22T23:31:59.337Z,98079.63
2019-05-22T23:34:34.286Z,98072.52
2019-05-22T23:37:11.267Z,98083.44
2019-05-22T23:39:47.950Z,98085.98
2019-05-22T23:44:31.947Z,98085.53
2019-05-22T23:47:07.873Z,98089.13
2019-05-22T23:49:41.656Z,98091.13
2019-05-22T23:52:18.393Z,98096.02
2019-05-22T23:54:54.302Z,98089.62
2019-05-22T23:57:29.564Z,98089.20
